Terminal Aerodrome Forecast
Issued by NWS

Home | Current Version | Previous Version | Text Only | Print | Product List | Glossary On
Versions: 1 2 3 4 5 6 7 8 9 10 11 12 13 14 15 16
000
FTUS43 KGRB 291100
TAFATW
TAF
KATW 291137Z 2912/3012 20015G25KT P6SM OVC250 WS010/22040KT
     FM291300 19020G30KT P6SM SCT100 OVC250
     FM291500 19020G30KT 3SM -RAPL SCT015 OVC040
      TEMPO 2915/2917 1SM -SN SCT007 OVC015
     FM291700 20022G34KT P6SM -SHRA BKN025
     FM292100 23015G23KT P6SM BKN040
     FM300100 28012KT P6SM SCT050=

USA.gov is the U.S. government's official web portal to all federal, state and local government web resources and services.